createdAt,value
2022-10-05T00:00:28.119Z,95.34
2022-10-05T00:01:28.151Z,95.34
2022-10-05T00:02:28.091Z,95.45
2022-10-05T00:03:28.071Z,95.45
2022-10-05T00:04:28.061Z,95.59
2022-10-05T00:05:28.155Z,95.55
2022-10-05T00:06:28.037Z,95.55
2022-10-05T00:07:28.025Z,95.59
2022-10-05T00:08:28.010Z,95.59
2022-10-05T00:09:27.991Z,95.59
2022-10-05T00:10:27.983Z,95.55
2022-10-05T00:11:27.964Z,95.70
2022-10-05T00:12:27.956Z,95.80
2022-10-05T00:13:27.943Z,95.75
2022-10-05T00:14:27.923Z,95.65
2022-10-05T00:15:27.909Z,95.55
2022-10-05T00:16:27.980Z,95.39
2022-10-05T00:17:27.883Z,95.24
2022-10-05T00:18:27.870Z,95.18
2022-10-05T00:19:27.858Z,95.14
2022-10-05T00:20:27.841Z,95.03
2022-10-05T00:21:27.854Z,95.14
2022-10-05T00:22:27.821Z,95.24
2022-10-05T00:23:27.805Z,95.24
2022-10-05T00:24:27.794Z,95.20
2022-10-05T00:25:27.780Z,95.14
2022-10-05T00:26:27.770Z,95.20
2022-10-05T00:27:27.752Z,95.30
2022-10-05T00:28:27.882Z,95.30
2022-10-05T00:29:27.728Z,95.30
2022-10-05T00:30:27.714Z,95.20
2022-10-05T00:31:27.749Z,95.40
2022-10-05T00:32:27.681Z,95.45
2022-10-05T00:33:27.668Z,95.40
2022-10-05T00:34:27.667Z,95.30
2022-10-05T00:35:27.641Z,95.30
2022-10-05T00:36:27.632Z,95.20
2022-10-05T00:37:27.636Z,95.30
2022-10-05T00:38:27.610Z,95.30
2022-10-05T00:39:27.587Z,95.30
2022-10-05T00:40:27.580Z,95.30
2022-10-05T00:41:27.564Z,95.34
2022-10-05T00:42:27.556Z,95.50
2022-10-05T00:43:27.537Z,95.65
2022-10-05T00:44:27.530Z,95.75
2022-10-05T00:45:27.621Z,95.65
2022-10-05T00:46:27.499Z,95.61
2022-10-05T00:47:27.489Z,95.65
2022-10-05T00:48:27.469Z,95.75
2022-10-05T00:49:27.452Z,95.55
2022-10-05T00:50:27.446Z,95.45
2022-10-05T00:51:27.629Z,95.55
2022-10-05T00:52:27.426Z,95.55
2022-10-05T00:53:27.428Z,95.75
2022-10-05T00:54:27.394Z,95.75
2022-10-05T00:55:27.378Z,95.75
2022-10-05T00:56:27.368Z,95.75
2022-10-05T00:57:27.348Z,95.65
2022-10-05T00:58:27.332Z,95.70
2022-10-05T00:59:27.319Z,95.55
2022-10-05T01:00:27.307Z,95.75
2022-10-05T01:01:27.350Z,95.70
2022-10-05T01:02:27.343Z,95.59
2022-10-05T01:03:27.262Z,95.49
2022-10-05T01:04:27.259Z,95.49
2022-10-05T01:05:27.243Z,95.49
2022-10-05T01:06:27.232Z,95.39
2022-10-05T01:07:27.212Z,95.39
2022-10-05T01:08:27.203Z,95.45
2022-10-05T01:09:27.221Z,95.45
2022-10-05T01:10:27.172Z,95.45
2022-10-05T01:11:27.158Z,95.45
2022-10-05T01:12:27.148Z,95.65
2022-10-05T01:13:27.132Z,95.55
2022-10-05T01:14:27.120Z,95.65
2022-10-05T01:15:27.111Z,95.70
2022-10-05T01:16:27.141Z,95.55
2022-10-05T01:17:27.084Z,95.55
2022-10-05T01:18:27.073Z,95.55
2022-10-05T01:19:27.059Z,95.45
2022-10-05T01:20:27.042Z,95.45
2022-10-05T01:21:27.033Z,95.45
2022-10-05T01:22:27.010Z,95.45
2022-10-05T01:23:27.000Z,95.49
2022-10-05T01:24:26.986Z,95.45
2022-10-05T01:25:26.994Z,95.39
2022-10-05T01:26:26.958Z,95.45
2022-10-05T01:27:26.946Z,95.45
2022-10-05T01:28:26.973Z,95.34
2022-10-05T01:29:26.921Z,95.45
2022-10-05T01:30:26.906Z,95.34
2022-10-05T01:31:27.013Z,95.34
2022-10-05T01:32:26.888Z,95.34
2022-10-05T01:33:26.877Z,95.45
2022-10-05T01:34:26.851Z,95.34
2022-10-05T01:35:26.844Z,95.39
2022-10-05T01:36:26.834Z,95.45
2022-10-05T01:37:26.815Z,95.45
2022-10-05T01:38:26.800Z,95.34
2022-10-05T01:39:26.788Z,95.45
2022-10-05T01:40:26.772Z,95.45
2022-10-05T01:41:26.783Z,95.45
2022-10-05T01:42:26.751Z,95.45
2022-10-05T01:43:26.736Z,95.59
2022-10-05T01:44:26.722Z,95.55
2022-10-05T01:45:26.867Z,95.55
2022-10-05T01:46:26.693Z,95.45
2022-10-05T01:47:26.683Z,95.45
2022-10-05T01:48:26.669Z,95.49
2022-10-05T01:49:26.653Z,95.49
2022-10-05T01:50:26.639Z,95.39
2022-10-05T01:51:26.639Z,95.59
2022-10-05T01:52:26.607Z,95.49
2022-10-05T01:53:26.596Z,95.49
2022-10-05T01:54:26.587Z,95.49
2022-10-05T01:55:26.567Z,95.39
2022-10-05T01:56:26.562Z,95.39
2022-10-05T01:57:26.571Z,95.39
2022-10-05T01:58:26.529Z,95.39
2022-10-05T01:59:26.522Z,95.39
2022-10-05T02:00:26.502Z,95.39
2022-10-05T02:01:26.564Z,95.43
2022-10-05T02:02:26.576Z,95.43
2022-10-05T02:03:26.469Z,95.39
2022-10-05T02:04:59.839Z,95.39
2022-10-05T02:05:27.459Z,95.39
2022-10-05T02:06:26.420Z,95.53
2022-10-05T02:07:26.406Z,95.53
2022-10-05T02:08:26.393Z,95.49
2022-10-05T02:09:26.383Z,95.53
2022-10-05T02:10:26.368Z,95.53
2022-10-05T02:11:26.355Z,95.53
2022-10-05T02:12:26.336Z,95.64
2022-10-05T02:13:26.353Z,95.53
2022-10-05T02:14:26.316Z,95.53
2022-10-05T02:15:26.302Z,95.58
2022-10-05T02:16:26.357Z,95.58
2022-10-05T02:17:26.274Z,95.58
2022-10-05T02:18:26.259Z,95.58
2022-10-05T02:19:26.250Z,95.58
2022-10-05T02:20:26.231Z,95.58
2022-10-05T02:21:26.221Z,95.68
2022-10-05T02:22:26.207Z,95.68
2022-10-05T02:23:26.197Z,95.68
2022-10-05T02:24:26.176Z,95.58
2022-10-05T02:25:26.170Z,95.58
2022-10-05T02:26:26.155Z,95.64
2022-10-05T02:27:26.146Z,95.68
2022-10-05T02:28:26.253Z,95.68
2022-10-05T02:29:26.141Z,95.64
2022-10-05T02:30:26.100Z,95.68
2022-10-05T02:31:26.183Z,95.64
2022-10-05T02:32:26.074Z,95.68
2022-10-05T02:33:26.070Z,95.68
2022-10-05T02:34:26.060Z,95.78
2022-10-05T02:35:26.053Z,95.78
2022-10-05T02:36:26.022Z,95.68
2022-10-05T02:37:26.009Z,95.68
2022-10-05T02:38:25.999Z,95.68
2022-10-05T02:39:25.991Z,95.68
2022-10-05T02:40:25.972Z,95.68
2022-10-05T02:41:25.965Z,95.68
2022-10-05T02:42:26.024Z,95.68
2022-10-05T02:43:25.927Z,95.68
2022-10-05T02:44:25.915Z,95.68
2022-10-05T02:45:25.928Z,95.78
2022-10-05T02:46:26.336Z,95.73
2022-10-05T02:47:25.879Z,95.83
2022-10-05T02:48:25.859Z,95.73
2022-10-05T02:49:25.860Z,95.73
2022-10-05T02:50:25.833Z,95.73
2022-10-05T02:51:25.831Z,95.73
2022-10-05T02:52:25.808Z,95.78
2022-10-05T02:53:25.799Z,95.83
2022-10-05T02:54:25.777Z,95.83
2022-10-05T02:55:25.771Z,95.83
2022-10-05T02:56:25.751Z,95.83
2022-10-05T02:57:25.746Z,95.83
2022-10-05T02:58:25.727Z,95.83
2022-10-05T02:59:25.718Z,95.83
2022-10-05T03:00:25.703Z,95.83
2022-10-05T03:01:25.828Z,95.83
2022-10-05T03:02:25.834Z,95.87
2022-10-05T03:03:25.670Z,95.83
2022-10-05T03:04:25.655Z,95.83
2022-10-05T03:05:25.644Z,95.93
2022-10-05T03:06:25.631Z,95.83
2022-10-05T03:07:25.616Z,95.93
2022-10-05T03:08:25.596Z,95.93
2022-10-05T03:09:25.587Z,95.83
2022-10-05T03:10:25.565Z,95.87
2022-10-05T03:11:25.556Z,95.98
2022-10-05T03:12:25.541Z,95.93
2022-10-05T03:13:25.534Z,96.08
2022-10-05T03:14:25.516Z,95.98
2022-10-05T03:15:25.498Z,96.08
2022-10-05T03:16:25.616Z,95.98
2022-10-05T03:17:25.506Z,95.98
2022-10-05T03:18:30.459Z,95.92
2022-10-05T03:19:25.453Z,95.87
2022-10-05T03:20:25.434Z,96.02
2022-10-05T03:21:25.426Z,95.87
2022-10-05T03:22:25.410Z,95.92
2022-10-05T03:23:25.398Z,95.92
2022-10-05T03:24:25.382Z,96.02
2022-10-05T03:25:25.369Z,96.12
2022-10-05T03:26:25.354Z,96.02
2022-10-05T03:27:25.349Z,95.98
2022-10-05T03:28:25.400Z,96.02
2022-10-05T03:29:25.320Z,96.02
2022-10-05T03:30:25.301Z,96.02
2022-10-05T03:31:25.373Z,96.02
2022-10-05T03:32:25.281Z,96.02
2022-10-05T03:33:25.291Z,96.02
2022-10-05T03:34:25.245Z,95.92
2022-10-05T03:35:25.241Z,96.02
2022-10-05T03:36:25.220Z,96.02
2022-10-05T03:37:25.210Z,96.12
2022-10-05T03:38:25.196Z,96.02
2022-10-05T03:39:25.184Z,96.02
2022-10-05T03:40:25.168Z,96.02
2022-10-05T03:41:25.152Z,96.02
2022-10-05T03:42:25.142Z,96.02
2022-10-05T03:43:25.132Z,95.92
2022-10-05T03:44:25.115Z,96.17
2022-10-05T03:45:25.120Z,96.02
2022-10-05T03:46:25.147Z,96.12
2022-10-05T03:47:25.086Z,96.06
2022-10-05T03:48:25.060Z,96.02
2022-10-05T03:49:25.077Z,96.02
2022-10-05T03:50:25.034Z,96.02
2022-10-05T03:51:25.028Z,96.02
2022-10-05T03:52:25.005Z,96.06
2022-10-05T03:53:24.996Z,96.02
2022-10-05T03:54:24.983Z,96.02
2022-10-05T03:55:24.973Z,96.02
2022-10-05T03:56:24.959Z,96.02
2022-10-05T03:57:24.945Z,95.87
2022-10-05T03:58:24.922Z,96.02
2022-10-05T03:59:28.795Z,96.02
2022-10-05T04:00:25.934Z,95.92
2022-10-05T04:01:24.997Z,96.02
2022-10-05T04:02:25.008Z,96.02
2022-10-05T04:03:24.863Z,96.02
2022-10-05T04:04:24.852Z,95.98
2022-10-05T04:05:24.859Z,96.02
2022-10-05T04:06:24.823Z,96.02
2022-10-05T04:07:24.816Z,95.98
2022-10-05T04:08:24.849Z,95.98
2022-10-05T04:09:24.791Z,95.98
2022-10-05T04:10:24.769Z,95.98
2022-10-05T04:11:24.760Z,95.87
2022-10-05T04:12:24.750Z,95.93
2022-10-05T04:13:24.735Z,95.98
2022-10-05T04:14:24.714Z,95.98
2022-10-05T04:15:24.702Z,95.87
2022-10-05T04:16:24.772Z,95.98
2022-10-05T04:17:24.675Z,95.93
2022-10-05T04:18:24.657Z,96.03
2022-10-05T04:19:24.655Z,95.93
2022-10-05T04:20:24.631Z,95.93
2022-10-05T04:21:24.644Z,95.93
2022-10-05T04:22:24.610Z,95.93
2022-10-05T04:23:24.601Z,95.93
2022-10-05T04:24:24.581Z,95.93
2022-10-05T04:25:24.572Z,95.83
2022-10-05T04:26:24.552Z,95.83
2022-10-05T04:27:24.542Z,95.93
2022-10-05T04:28:28.315Z,95.93
2022-10-05T04:29:25.533Z,95.93
2022-10-05T04:30:24.505Z,95.93
2022-10-05T04:31:24.558Z,95.98
2022-10-05T04:32:24.480Z,95.93
2022-10-05T04:33:24.470Z,95.93
2022-10-05T04:34:24.450Z,95.93
2022-10-05T04:35:24.437Z,95.93
2022-10-05T04:36:24.428Z,95.98
2022-10-05T04:37:24.493Z,95.93
2022-10-05T04:38:24.391Z,95.93
2022-10-05T04:39:24.384Z,95.98
2022-10-05T04:40:24.367Z,95.98
2022-10-05T04:41:24.355Z,95.98
2022-10-05T04:42:24.353Z,95.98
2022-10-05T04:43:24.332Z,96.08
2022-10-05T04:44:24.309Z,95.87
2022-10-05T04:45:24.302Z,95.92
2022-10-05T04:46:24.348Z,95.92
2022-10-05T04:47:24.278Z,95.92
2022-10-05T04:48:24.266Z,96.02
2022-10-05T04:49:24.255Z,95.87
2022-10-05T04:50:24.242Z,96.02
2022-10-05T04:51:24.225Z,96.02
2022-10-05T04:52:24.217Z,96.12
2022-10-05T04:53:24.224Z,96.12
2022-10-05T04:54:24.178Z,96.12
2022-10-05T04:55:24.171Z,96.02
2022-10-05T04:56:24.157Z,96.12
2022-10-05T04:57:24.152Z,96.06
2022-10-05T04:58:24.132Z,96.17
2022-10-05T04:59:24.118Z,96.06
2022-10-05T05:00:24.114Z,96.06
2022-10-05T05:01:24.136Z,96.06
2022-10-05T05:02:24.078Z,96.06
2022-10-05T05:03:24.079Z,96.06
2022-10-05T05:04:24.046Z,96.06
2022-10-05T05:05:24.038Z,96.06
2022-10-05T05:06:24.025Z,96.06
2022-10-05T05:07:24.010Z,96.17
2022-10-05T05:08:23.994Z,96.06
2022-10-05T05:09:24.006Z,96.17
2022-10-05T05:10:23.971Z,96.17
2022-10-05T05:11:24.794Z,96.17
2022-10-05T05:12:23.940Z,96.27
2022-10-05T05:13:23.934Z,96.17
2022-10-05T05:14:23.914Z,96.06
2022-10-05T05:15:23.906Z,96.17
2022-10-05T05:16:23.953Z,96.17
2022-10-05T05:17:23.881Z,96.17
2022-10-05T05:18:23.862Z,96.17
2022-10-05T05:19:23.847Z,96.17
2022-10-05T05:20:23.839Z,96.11
2022-10-05T05:21:23.823Z,96.11
2022-10-05T05:22:23.808Z,96.11
2022-10-05T05:23:23.796Z,96.11
2022-10-05T05:24:23.780Z,96.21
2022-10-05T05:25:23.789Z,96.21
2022-10-05T05:26:23.764Z,96.21
2022-10-05T05:27:23.746Z,96.21
2022-10-05T05:28:23.791Z,96.21
2022-10-05T05:29:23.719Z,96.21
2022-10-05T05:30:23.705Z,96.21
2022-10-05T05:31:23.750Z,96.31
2022-10-05T05:32:23.681Z,96.21
2022-10-05T05:33:23.665Z,96.26
2022-10-05T05:34:23.654Z,96.36
2022-10-05T05:35:23.628Z,96.11
2022-10-05T05:36:23.730Z,96.11
2022-10-05T05:37:23.602Z,96.21
2022-10-05T05:38:23.600Z,96.11
2022-10-05T05:39:23.583Z,96.11
2022-10-05T05:40:23.570Z,96.21
2022-10-05T05:41:23.579Z,96.11
2022-10-05T05:42:23.544Z,96.06
2022-10-05T05:43:23.559Z,96.11
2022-10-05T05:44:23.518Z,96.11
2022-10-05T05:45:23.500Z,96.21
2022-10-05T05:46:38.916Z,96.17
2022-10-05T05:47:24.554Z,96.21
2022-10-05T05:48:23.464Z,96.21
2022-10-05T05:49:23.450Z,95.96
2022-10-05T05:50:23.432Z,96.11
2022-10-05T05:51:23.418Z,96.06
2022-10-05T05:52:23.406Z,96.06
2022-10-05T05:53:23.388Z,96.17
2022-10-05T05:54:23.377Z,96.06
2022-10-05T05:55:27.645Z,96.17
2022-10-05T05:56:24.370Z,96.02
2022-10-05T05:57:23.361Z,96.12
2022-10-05T05:58:23.340Z,96.12
2022-10-05T05:59:23.314Z,96.12
2022-10-05T06:00:23.313Z,96.17
2022-10-05T06:01:32.910Z,96.12
2022-10-05T06:02:24.440Z,96.12
2022-10-05T06:03:23.378Z,96.02
2022-10-05T06:04:23.245Z,96.02
2022-10-05T06:05:23.227Z,96.12
2022-10-05T06:06:23.228Z,96.12
2022-10-05T06:07:28.041Z,96.12
2022-10-05T06:08:24.224Z,96.02
2022-10-05T06:09:23.178Z,96.02
2022-10-05T06:10:23.179Z,96.02
2022-10-05T06:11:23.169Z,96.02
2022-10-05T06:12:23.146Z,95.92
2022-10-05T06:13:23.147Z,96.12
2022-10-05T06:14:23.112Z,96.02
2022-10-05T06:15:23.095Z,96.02
2022-10-05T06:16:23.171Z,95.87
2022-10-05T06:17:23.069Z,95.87
2022-10-05T06:18:23.072Z,95.87
2022-10-05T06:19:23.043Z,95.93
2022-10-05T06:20:23.034Z,95.83
2022-10-05T06:21:23.014Z,95.83
2022-10-05T06:22:23.008Z,95.83
2022-10-05T06:23:22.994Z,95.89
2022-10-05T06:24:22.994Z,95.78
2022-10-05T06:25:22.965Z,95.78
2022-10-05T06:26:22.953Z,95.89
2022-10-05T06:27:22.939Z,95.95
2022-10-05T06:28:22.991Z,95.99
2022-10-05T06:29:22.954Z,95.95
2022-10-05T06:30:22.901Z,95.95
2022-10-05T06:31:22.906Z,95.84
2022-10-05T06:32:22.870Z,96.25
2022-10-05T06:33:22.857Z,96.05
2022-10-05T06:34:22.851Z,96.15
2022-10-05T06:35:22.836Z,96.25
2022-10-05T06:36:22.826Z,96.36
2022-10-05T06:37:22.806Z,96.20
2022-10-05T06:38:22.794Z,96.30
2022-10-05T06:39:22.775Z,96.09
2022-10-05T06:40:22.770Z,95.99
2022-10-05T06:41:22.750Z,95.99
2022-10-05T06:42:22.739Z,96.20
2022-10-05T06:43:22.723Z,96.09
2022-10-05T06:44:22.711Z,96.20
2022-10-05T06:45:22.833Z,96.05
2022-10-05T06:46:22.793Z,95.89
2022-10-05T06:47:22.670Z,95.84
2022-10-05T06:48:22.661Z,96.11
2022-10-05T06:49:22.649Z,96.31
2022-10-05T06:50:22.638Z,96.06
2022-10-05T06:51:22.619Z,96.06
2022-10-05T06:52:22.607Z,96.17
2022-10-05T06:53:22.591Z,96.22
2022-10-05T06:54:22.584Z,96.64
2022-10-05T06:55:22.566Z,96.48
2022-10-05T06:56:22.557Z,96.44
2022-10-05T06:57:22.536Z,96.75
2022-10-05T06:58:22.524Z,96.97
2022-10-05T06:59:22.513Z,97.13
2022-10-05T07:00:22.513Z,97.08
2022-10-05T07:01:22.560Z,96.54
2022-10-05T07:02:22.619Z,95.59
2022-10-05T07:03:22.475Z,95.15
2022-10-05T07:04:22.450Z,93.48
2022-10-05T07:05:22.433Z,90.50
2022-10-05T07:06:22.417Z,89.24
2022-10-05T07:07:22.401Z,88.34
2022-10-05T07:08:22.393Z,85.46
2022-10-05T07:09:22.374Z,82.03
2022-10-05T07:10:22.386Z,79.35
2022-10-05T07:11:22.349Z,78.74
2022-10-05T07:12:22.340Z,78.80
2022-10-05T07:13:22.328Z,76.23
2022-10-05T07:14:22.328Z,74.98
2022-10-05T07:15:22.296Z,73.66
2022-10-05T07:16:22.322Z,74.88
2022-10-05T07:17:22.307Z,78.24
2022-10-05T07:18:22.257Z,84.92
2022-10-05T07:19:22.249Z,87.38
2022-10-05T07:20:22.232Z,88.49
2022-10-05T07:21:22.214Z,89.75
2022-10-05T07:22:22.205Z,90.41
2022-10-05T07:23:22.187Z,91.02
2022-10-05T07:24:22.182Z,91.08
2022-10-05T07:25:22.161Z,91.18
2022-10-05T07:26:22.157Z,90.36
2022-10-05T07:27:22.141Z,91.33
2022-10-05T07:28:22.151Z,91.16
2022-10-05T07:29:22.116Z,91.67
2022-10-05T07:30:22.100Z,92.08
2022-10-05T07:31:22.170Z,92.43
2022-10-05T07:32:22.073Z,92.64
2022-10-05T07:33:22.081Z,92.84
2022-10-05T07:34:22.043Z,92.80
2022-10-05T07:35:22.028Z,93.00
2022-10-05T07:36:22.015Z,92.80
2022-10-05T07:37:22.004Z,92.90
2022-10-05T07:38:21.997Z,92.59
2022-10-05T07:39:23.493Z,92.59
2022-10-05T07:40:21.973Z,93.00
2022-10-05T07:41:21.952Z,93.21
2022-10-05T07:42:21.940Z,93.21
2022-10-05T07:43:21.920Z,93.15
2022-10-05T07:44:21.912Z,93.31
2022-10-05T07:45:21.892Z,92.65
2022-10-05T07:46:21.939Z,92.65
2022-10-05T07:47:21.864Z,92.65
2022-10-05T07:48:21.858Z,92.59
2022-10-05T07:49:21.887Z,92.90
2022-10-05T07:50:21.835Z,93.16
2022-10-05T07:51:21.815Z,93.31
2022-10-05T07:52:21.847Z,93.37
2022-10-05T07:53:21.790Z,93.31
2022-10-05T07:54:21.796Z,93.41
2022-10-05T07:55:21.808Z,93.31
2022-10-05T07:56:21.752Z,93.51
2022-10-05T07:57:21.734Z,93.88
2022-10-05T07:58:21.716Z,94.04
2022-10-05T07:59:21.701Z,93.40
2022-10-05T08:00:21.838Z,91.13
2022-10-05T08:01:21.774Z,89.64
2022-10-05T08:02:21.786Z,87.45
2022-10-05T08:03:21.778Z,85.10
2022-10-05T08:04:21.639Z,78.50
2022-10-05T08:05:21.639Z,73.05
2022-10-05T08:06:21.615Z,74.69
2022-10-05T08:07:21.596Z,72.47
2022-10-05T08:08:21.598Z,68.88
2022-10-05T08:09:21.571Z,68.45
2022-10-05T08:10:21.682Z,68.49
2022-10-05T08:11:21.542Z,63.96
2022-10-05T08:12:21.534Z,62.86
2022-10-05T08:13:21.514Z,64.24
2022-10-05T08:14:21.507Z,63.64
2022-10-05T08:15:21.493Z,63.13
2022-10-05T08:16:21.516Z,62.60
2022-10-05T08:17:25.477Z,61.47
2022-10-05T08:18:21.452Z,62.97
2022-10-05T08:19:21.437Z,62.30
2022-10-05T08:20:21.526Z,63.70
2022-10-05T08:21:21.432Z,62.80
2022-10-05T08:22:21.453Z,64.04
2022-10-05T08:23:21.386Z,65.21
2022-10-05T08:24:21.375Z,64.31
2022-10-05T08:25:21.363Z,63.57
2022-10-05T08:26:21.354Z,62.80
2022-10-05T08:27:21.334Z,64.27
2022-10-05T08:28:21.388Z,64.80
2022-10-05T08:29:21.305Z,65.88
2022-10-05T08:30:21.295Z,65.84
2022-10-05T08:31:21.342Z,64.31
2022-10-05T08:32:21.272Z,62.92
2022-10-05T08:33:21.251Z,61.68
2022-10-05T08:34:21.248Z,61.15
2022-10-05T08:35:21.234Z,60.32
2022-10-05T08:36:21.224Z,59.79
2022-10-05T08:37:21.230Z,58.26
2022-10-05T08:38:21.192Z,57.54
2022-10-05T08:39:21.184Z,56.98
2022-10-05T08:40:21.169Z,56.29
2022-10-05T08:41:21.149Z,57.13
2022-10-05T08:42:21.138Z,55.71
2022-10-05T08:43:21.129Z,54.86
2022-10-05T08:44:21.120Z,53.69
2022-10-05T08:45:21.102Z,53.86
2022-10-05T08:46:21.295Z,54.11
2022-10-05T08:47:21.075Z,54.21
2022-10-05T08:48:21.066Z,53.86
2022-10-05T08:49:21.050Z,54.03
2022-10-05T08:50:21.042Z,52.00
2022-10-05T08:51:21.023Z,52.00
2022-10-05T08:52:21.367Z,51.92
2022-10-05T08:53:21.024Z,51.75
2022-10-05T08:54:20.984Z,52.54
2022-10-05T08:55:20.968Z,52.32
2022-10-05T08:56:25.123Z,52.64
2022-10-05T08:57:21.969Z,53.88
2022-10-05T08:58:20.934Z,53.76
2022-10-05T08:59:20.918Z,52.09
2022-10-05T09:00:20.912Z,50.46
2022-10-05T09:01:20.946Z,50.31
2022-10-05T09:02:20.969Z,48.48
2022-10-05T09:03:20.868Z,47.49
2022-10-05T09:04:20.862Z,48.27
2022-10-05T09:05:20.844Z,49.07
2022-10-05T09:06:20.838Z,49.76
2022-10-05T09:07:20.821Z,48.72
2022-10-05T09:08:20.821Z,45.90
2022-10-05T09:09:20.814Z,45.98
2022-10-05T09:10:20.781Z,46.18
2022-10-05T09:11:20.766Z,45.84
2022-10-05T09:12:20.756Z,44.83
2022-10-05T09:13:20.741Z,45.38
2022-10-05T09:14:20.736Z,42.95
2022-10-05T09:15:25.864Z,41.99
2022-10-05T09:16:20.849Z,42.77
2022-10-05T09:17:20.699Z,43.68
2022-10-05T09:18:20.685Z,44.26
2022-10-05T09:19:20.666Z,45.37
2022-10-05T09:20:20.654Z,45.49
2022-10-05T09:21:20.643Z,45.98
2022-10-05T09:22:20.640Z,45.84
2022-10-05T09:23:20.621Z,43.92
2022-10-05T09:24:20.620Z,44.15
2022-10-05T09:25:20.615Z,43.15
2022-10-05T09:26:20.585Z,42.55
2022-10-05T09:27:20.568Z,43.27
2022-10-05T09:28:20.652Z,43.60
2022-10-05T09:29:20.545Z,47.15
2022-10-05T09:30:20.537Z,47.41
2022-10-05T09:31:20.560Z,48.25
2022-10-05T09:32:20.507Z,49.51
2022-10-05T09:33:20.493Z,50.75
2022-10-05T09:34:20.490Z,51.95
2022-10-05T09:35:20.476Z,51.37
2022-10-05T09:36:20.461Z,51.79
2022-10-05T09:37:20.449Z,53.44
2022-10-05T09:38:20.440Z,54.88
2022-10-05T09:39:20.422Z,55.91
2022-10-05T09:40:20.415Z,56.40
2022-10-05T09:41:20.430Z,55.93
2022-10-05T09:42:20.388Z,55.86
2022-10-05T09:43:20.374Z,57.68
2022-10-05T09:44:20.365Z,58.08
2022-10-05T09:45:21.489Z,57.35
2022-10-05T09:46:20.455Z,57.39
2022-10-05T09:47:20.325Z,57.18
2022-10-05T09:48:20.309Z,57.09
2022-10-05T09:49:20.303Z,57.51
2022-10-05T09:50:20.280Z,58.44
2022-10-05T09:51:20.269Z,59.44
2022-10-05T09:52:20.260Z,59.64
2022-10-05T09:53:20.453Z,59.34
2022-10-05T09:54:20.233Z,60.66
2022-10-05T09:55:20.223Z,60.06
2022-10-05T09:56:20.281Z,60.86
2022-10-05T09:57:20.221Z,61.46
2022-10-05T09:58:20.180Z,60.77
2022-10-05T09:59:20.170Z,60.46
2022-10-05T10:00:20.152Z,60.86
2022-10-05T10:01:33.259Z,61.36
2022-10-05T10:02:21.273Z,60.86
2022-10-05T10:03:20.222Z,60.66
2022-10-05T10:04:20.101Z,59.98
2022-10-05T10:05:20.095Z,57.60
2022-10-05T10:06:20.077Z,56.65
2022-10-05T10:07:20.069Z,56.48
2022-10-05T10:08:20.054Z,57.10
2022-10-05T10:09:20.045Z,58.15
2022-10-05T10:10:20.024Z,58.58
2022-10-05T10:11:20.014Z,60.11
2022-10-05T10:12:19.997Z,60.44
2022-10-05T10:13:20.010Z,61.13
2022-10-05T10:14:19.975Z,61.54
2022-10-05T10:15:19.967Z,61.63
2022-10-05T10:16:20.092Z,60.93
2022-10-05T10:17:19.943Z,61.16
2022-10-05T10:18:19.922Z,61.13
2022-10-05T10:19:19.917Z,61.10
2022-10-05T10:20:19.895Z,59.95
2022-10-05T10:21:19.888Z,58.55
2022-10-05T10:22:19.922Z,59.12
2022-10-05T10:23:19.865Z,58.83
2022-10-05T10:24:19.850Z,58.00
2022-10-05T10:25:19.840Z,56.95
2022-10-05T10:26:19.828Z,56.10
2022-10-05T10:27:19.815Z,55.30
2022-10-05T10:28:19.845Z,55.43
2022-10-05T10:29:19.903Z,56.23
2022-10-05T10:30:19.842Z,57.24
2022-10-05T10:31:19.870Z,56.92
2022-10-05T10:32:19.761Z,57.02
2022-10-05T10:33:19.733Z,57.37
2022-10-05T10:34:19.718Z,58.23
2022-10-05T10:35:19.814Z,59.15
2022-10-05T10:36:19.696Z,60.38
2022-10-05T10:37:19.688Z,60.97
2022-10-05T10:38:19.663Z,60.50
2022-10-05T10:39:19.654Z,62.23
2022-10-05T10:40:19.649Z,63.73
2022-10-05T10:41:19.629Z,62.43
2022-10-05T10:42:23.895Z,62.30
2022-10-05T10:43:20.630Z,63.04
2022-10-05T10:44:19.591Z,62.12
2022-10-05T10:45:19.685Z,59.79
2022-10-05T10:46:19.608Z,59.27
2022-10-05T10:47:19.551Z,58.07
2022-10-05T10:48:19.535Z,57.52
2022-10-05T10:49:19.526Z,57.29
2022-10-05T10:50:19.513Z,56.40
2022-10-05T10:51:19.507Z,57.62
2022-10-05T10:52:19.489Z,58.41
2022-10-05T10:53:19.477Z,56.65
2022-10-05T10:54:19.522Z,60.46
2022-10-05T10:55:19.452Z,59.69
2022-10-05T10:56:19.433Z,60.39
2022-10-05T10:57:19.433Z,60.35
2022-10-05T10:58:19.485Z,62.04
2022-10-05T10:59:19.403Z,61.44
2022-10-05T11:00:19.384Z,61.65
2022-10-05T11:01:19.491Z,62.74
2022-10-05T11:02:19.422Z,61.85
2022-10-05T11:03:19.347Z,63.04
2022-10-05T11:04:19.331Z,62.84
2022-10-05T11:05:19.325Z,62.54
2022-10-05T11:06:19.304Z,60.95
2022-10-05T11:07:19.297Z,62.94
2022-10-05T11:08:19.278Z,61.11
2022-10-05T11:09:19.267Z,60.06
2022-10-05T11:10:19.258Z,58.36
2022-10-05T11:11:19.247Z,55.29
2022-10-05T11:12:19.227Z,53.92
2022-10-05T11:13:19.217Z,52.66
2022-10-05T11:14:19.201Z,51.62
2022-10-05T11:15:19.193Z,49.96
2022-10-05T11:16:19.891Z,48.66
2022-10-05T11:17:19.189Z,49.94
2022-10-05T11:18:19.151Z,49.08
2022-10-05T11:19:19.142Z,50.51
2022-10-05T11:20:19.118Z,52.88
2022-10-05T11:21:19.112Z,50.12
2022-10-05T11:22:19.097Z,49.67
2022-10-05T11:23:19.087Z,50.31
2022-10-05T11:24:19.071Z,48.74
2022-10-05T11:25:19.063Z,45.15
2022-10-05T11:26:19.044Z,45.52
2022-10-05T11:27:19.084Z,45.79
2022-10-05T11:28:19.089Z,45.18
2022-10-05T11:29:19.008Z,44.49
2022-10-05T11:30:19.023Z,44.23
2022-10-05T11:31:19.193Z,42.45
2022-10-05T11:32:18.968Z,42.43
2022-10-05T11:33:19.017Z,43.19
2022-10-05T11:34:18.951Z,42.27
2022-10-05T11:35:18.940Z,42.05
2022-10-05T11:36:18.920Z,41.72
2022-10-05T11:37:18.915Z,42.85
2022-10-05T11:38:18.896Z,41.66
2022-10-05T11:39:18.897Z,38.42
2022-10-05T11:40:18.874Z,39.12
2022-10-05T11:41:18.867Z,39.06
2022-10-05T11:42:18.848Z,39.28
2022-10-05T11:43:18.837Z,39.37
2022-10-05T11:44:18.818Z,40.64
2022-10-05T11:45:18.810Z,40.99
2022-10-05T11:46:18.834Z,39.51
2022-10-05T11:47:18.785Z,40.73
2022-10-05T11:48:18.771Z,38.87
2022-10-05T11:49:18.782Z,37.17
2022-10-05T11:50:18.754Z,38.32
2022-10-05T11:51:18.935Z,38.53
2022-10-05T11:52:18.729Z,39.92
2022-10-05T11:53:18.721Z,40.01
2022-10-05T11:54:18.701Z,40.08
2022-10-05T11:55:18.695Z,38.63
2022-10-05T11:56:18.708Z,38.82
2022-10-05T11:57:18.667Z,38.92
2022-10-05T11:58:18.655Z,39.04
2022-10-05T11:59:18.644Z,40.39
2022-10-05T12:00:18.634Z,39.80
2022-10-05T12:01:18.625Z,39.06
2022-10-05T12:02:18.610Z,38.42
2022-10-05T12:03:18.688Z,39.70
2022-10-05T12:04:18.587Z,40.48
2022-10-05T12:05:18.599Z,41.76
2022-10-05T12:06:18.559Z,41.96
2022-10-05T12:07:18.551Z,41.05
2022-10-05T12:08:18.535Z,42.33
2022-10-05T12:09:18.528Z,42.23
2022-10-05T12:10:18.513Z,42.09
2022-10-05T12:11:18.526Z,41.19
2022-10-05T12:12:18.494Z,40.76
2022-10-05T12:13:18.478Z,39.47
2022-10-05T12:14:18.467Z,38.49
2022-10-05T12:15:18.461Z,39.02
2022-10-05T12:16:18.557Z,39.72
2022-10-05T12:17:18.436Z,40.48
2022-10-05T12:18:18.427Z,40.25
2022-10-05T12:19:18.414Z,41.05
2022-10-05T12:20:18.399Z,41.42
2022-10-05T12:21:18.410Z,41.29
2022-10-05T12:22:18.370Z,40.39
2022-10-05T12:23:18.366Z,40.16
2022-10-05T12:24:19.706Z,39.53
2022-10-05T12:25:18.339Z,38.63
2022-10-05T12:26:18.326Z,37.81
2022-10-05T12:27:18.319Z,37.89
2022-10-05T12:28:18.353Z,37.70
2022-10-05T12:29:18.296Z,37.70
2022-10-05T12:30:18.275Z,37.39
2022-10-05T12:31:18.382Z,36.90
2022-10-05T12:32:18.251Z,36.65
2022-10-05T12:33:18.272Z,37.41
2022-10-05T12:34:18.226Z,36.72
2022-10-05T12:35:36.205Z,35.53
2022-10-05T12:36:19.225Z,37.63
2022-10-05T12:37:18.218Z,37.38
2022-10-05T12:38:18.184Z,39.16
2022-10-05T12:39:18.177Z,40.82
2022-10-05T12:40:18.161Z,37.41
2022-10-05T12:41:18.151Z,38.90
2022-10-05T12:42:18.137Z,38.90
2022-10-05T12:43:18.130Z,39.22
2022-10-05T12:44:18.114Z,37.75
2022-10-05T12:45:18.104Z,40.60
2022-10-05T12:46:18.085Z,40.11
2022-10-05T12:47:18.077Z,39.92
2022-10-05T12:48:18.061Z,39.04
2022-10-05T12:49:18.053Z,38.55
2022-10-05T12:50:18.040Z,38.98
2022-10-05T12:51:18.029Z,39.56
2022-10-05T12:52:18.017Z,39.37